Time;durP1;ratioP1;P1;durP2;ratioP2;P2;SDS_P1;SDS_P2;PMS_P1;PMS_P2;Temp;Humidity;BMP_temperature;BMP_pressure;BME280_temperature;BME280_humidity;BME280_pressure;Samples;Min_cycle;Max_cycle;Signal;HPM_P1;HPM_P2
2022/08/10 00:00:19;;;;;;;4.95;3.45;;;17.30;99.90;;;;;;5053652;28;20041;-82
2022/08/10 00:02:50;;;;;;;5.57;3.35;;;17.30;99.90;;;;;;5053598;28;20128;-82
2022/08/10 00:05:16;;;;;;;7.38;3.78;;;17.30;99.90;;;;;;5053736;28;20057;-83
2022/08/10 00:07:42;;;;;;;5.68;3.00;;;17.30;99.90;;;;;;5052423;28;20053;-83
2022/08/10 00:10:08;;;;;;;8.35;3.65;;;17.30;99.90;;;;;;5053552;28;20441;-82
2022/08/10 00:12:34;;;;;;;4.78;3.28;;;17.30;99.90;;;;;;5053217;28;20384;-82
2022/08/10 00:15:00;;;;;;;6.47;3.75;;;17.30;99.90;;;;;;5053434;28;20037;-82
2022/08/10 00:17:26;;;;;;;7.97;3.53;;;17.30;99.90;;;;;;5053498;28;20097;-84
2022/08/10 00:19:52;;;;;;;6.00;3.20;;;17.30;99.90;;;;;;5053407;28;20048;-83
2022/08/10 00:22:18;;;;;;;6.95;3.38;;;17.30;99.90;;;;;;5053295;28;20041;-82
2022/08/10 00:24:43;;;;;;;6.75;3.13;;;17.20;99.90;;;;;;5053186;28;20051;-81
2022/08/10 00:27:09;;;;;;;8.82;3.53;;;17.30;99.90;;;;;;5053363;28;20041;-82
2022/08/10 00:29:35;;;;;;;6.50;3.30;;;17.30;99.90;;;;;;5051976;28;20052;-82
2022/08/10 00:32:01;;;;;;;7.13;3.55;;;17.20;99.90;;;;;;5051827;28;20488;-82
2022/08/10 00:34:28;;;;;;;8.63;3.47;;;17.20;99.90;;;;;;5051908;28;20053;-83
2022/08/10 00:36:54;;;;;;;5.57;3.53;;;17.20;99.90;;;;;;5057264;28;20041;-82
2022/08/10 00:39:20;;;;;;;7.18;3.42;;;17.20;99.90;;;;;;5057056;28;20077;-82
2022/08/10 00:41:46;;;;;;;7.10;3.65;;;17.10;99.90;;;;;;5057118;28;20045;-82
2022/08/10 00:44:12;;;;;;;7.72;3.58;;;17.10;99.90;;;;;;5057078;28;20369;-82
2022/08/10 00:46:37;;;;;;;6.38;3.65;;;17.10;99.90;;;;;;5057191;28;20049;-82
2022/08/10 00:49:03;;;;;;;8.10;3.78;;;17.20;99.90;;;;;;5056886;28;20048;-82
2022/08/10 00:51:29;;;;;;;6.93;3.50;;;17.10;99.90;;;;;;5055995;28;20110;-82
2022/08/10 00:53:54;;;;;;;7.55;3.50;;;17.10;99.90;;;;;;5055503;28;20435;-82
2022/08/10 00:56:20;;;;;;;5.43;3.55;;;17.10;99.90;;;;;;5056829;28;20140;-82
2022/08/10 00:58:46;;;;;;;7.95;4.32;;;17.10;99.90;;;;;;5056863;28;20056;-82
2022/08/10 01:01:13;;;;;;;4.80;3.65;;;17.10;99.90;;;;;;5055863;28;20048;-81
2022/08/10 01:03:38;;;;;;;7.05;4.05;;;17.10;99.90;;;;;;5056858;28;20537;-82
2022/08/10 01:06:20;;;;;;;7.53;4.28;;;17.00;99.90;;;;;;5056522;28;20048;-82
2022/08/10 01:09:06;;;;;;;7.78;4.57;;;17.00;99.90;;;;;;5055600;28;20048;-82
2022/08/10 01:11:39;;;;;;;5.72;3.83;;;17.00;99.90;;;;;;5055207;28;20411;-82
2022/08/10 01:14:29;;;;;;;6.28;3.70;;;17.00;99.90;;;;;;5056679;28;20045;-81
2022/08/10 01:17:02;;;;;;;8.85;3.90;;;17.10;99.90;;;;;;5056608;28;20041;-82
2022/08/10 01:19:37;;;;;;;;;;;17.10;99.90;;;;;;5055628;28;20048;-82
2022/08/10 01:22:40;;;;;;;6.82;3.70;;;17.00;99.90;;;;;;5056494;28;19920;-82
2022/08/10 01:25:45;;;;;;;6.90;3.80;;;17.00;99.90;;;;;;5054710;28;20060;-82
2022/08/10 01:28:22;;;;;;;6.28;3.72;;;17.00;99.90;;;;;;5021775;28;20064;-82
2022/08/10 01:30:52;;;;;;;9.40;4.03;;;16.90;99.90;;;;;;5036382;28;20124;-82
2022/08/10 01:33:24;;;;;;;8.13;4.38;;;17.00;99.90;;;;;;5035026;28;20045;-82
2022/08/10 01:35:52;;;;;;;8.77;4.38;;;17.00;99.90;;;;;;5035241;28;20046;-82
2022/08/10 01:38:33;;;;;;;7.43;4.20;;;16.90;99.90;;;;;;5036108;28;20051;-82
2022/08/10 01:41:25;;;;;;;7.57;4.50;;;16.90;99.90;;;;;;5036243;28;20041;-82
2022/08/10 01:44:15;;;;;;;6.35;3.92;;;17.00;99.90;;;;;;5036216;28;20045;-82
2022/08/10 01:46:47;;;;;;;7.03;3.75;;;16.90;99.90;;;;;;5034565;28;20045;-81
2022/08/10 01:49:16;;;;;;;8.32;4.32;;;16.90;99.90;;;;;;5035979;28;20045;-81
2022/08/10 01:51:46;;;;;;;8.23;4.30;;;16.90;99.90;;;;;;5036042;28;20095;-81
2022/08/10 01:54:14;;;;;;;7.88;4.18;;;16.90;99.90;;;;;;5035861;28;20478;-82
2022/08/10 01:56:47;;;;;;;7.70;4.10;;;16.90;99.90;;;;;;5034486;28;20084;-81
2022/08/10 01:59:20;;;;;;;6.60;3.92;;;16.90;99.90;;;;;;5034518;28;20054;-82
2022/08/10 02:01:56;;;;;;;7.97;4.78;;;16.90;99.90;;;;;;5035926;28;20107;-81
2022/08/10 02:04:24;;;;;;;7.68;4.30;;;16.90;99.90;;;;;;5035755;28;20147;-82
2022/08/10 02:06:52;;;;;;;5.50;4.30;;;16.90;99.90;;;;;;5034323;28;20060;-82
2022/08/10 02:09:22;;;;;;;10.70;4.10;;;16.90;99.90;;;;;;5035644;28;20053;-82
2022/08/10 02:11:50;;;;;;;7.40;4.28;;;16.90;99.90;;;;;;5034358;28;20073;-82
2022/08/10 02:14:17;;;;;;;6.75;3.88;;;16.90;99.90;;;;;;5035599;28;20045;-83
2022/08/10 02:16:45;;;;;;;7.93;4.45;;;16.90;99.90;;;;;;5035678;28;20045;-82
2022/08/10 02:19:16;;;;;;;8.32;4.28;;;16.80;99.90;;;;;;5035455;28;20055;-82
2022/08/10 02:21:45;;;;;;;7.70;4.00;;;16.80;99.90;;;;;;5035502;28;20049;-82
2022/08/10 02:24:13;;;;;;;8.52;4.22;;;16.80;99.90;;;;;;5035393;28;20056;-82
2022/08/10 02:26:41;;;;;;;9.00;4.38;;;16.80;99.90;;;;;;5033916;28;20148;-83
2022/08/10 02:29:08;;;;;;;7.60;3.55;;;16.80;99.90;;;;;;5035384;28;20075;-82
2022/08/10 02:31:36;;;;;;;7.70;4.30;;;16.80;99.90;;;;;;5033993;28;20080;-82
2022/08/10 02:34:03;;;;;;;8.00;4.55;;;16.80;99.90;;;;;;5034985;28;20049;-82
2022/08/10 02:36:31;;;;;;;6.32;4.10;;;16.80;99.90;;;;;;5033991;28;20055;-82
2022/08/10 02:39:00;;;;;;;6.75;4.18;;;16.80;99.90;;;;;;5033799;28;20045;-82
2022/08/10 02:41:41;;;;;;;8.82;4.93;;;16.80;99.90;;;;;;5035059;28;20049;-82
2022/08/10 02:44:16;;;;;;;7.75;3.90;;;16.70;99.90;;;;;;5033985;28;20049;-82
2022/08/10 02:46:46;;;;;;;9.88;4.18;;;16.70;99.90;;;;;;5035212;28;20088;-82
2022/08/10 02:49:18;;;;;;;7.53;4.50;;;16.70;99.90;;;;;;5033653;28;20095;-82
2022/08/10 02:51:58;;;;;;;7.68;4.68;;;16.70;99.90;;;;;;5033624;28;20138;-82
2022/08/10 02:54:28;;;;;;;8.27;5.43;;;16.60;99.90;;;;;;5034782;28;20087;-82
2022/08/10 02:57:07;;;;;;;11.02;5.63;;;16.60;99.90;;;;;;5034778;28;20045;-82
2022/08/10 02:59:49;;;;;;;8.00;5.32;;;16.60;99.90;;;;;;5033000;28;20053;-83
2022/08/10 03:02:23;;;;;;;12.20;5.80;;;16.60;99.90;;;;;;5033384;28;20060;-82
2022/08/10 03:04:53;;;;;;;10.00;5.88;;;16.50;99.90;;;;;;5033607;28;20110;-82
2022/08/10 03:07:21;;;;;;;9.52;5.88;;;16.50;99.90;;;;;;5033128;28;20045;-82
2022/08/10 03:09:48;;;;;;;10.00;6.10;;;16.50;99.90;;;;;;5034560;28;20045;-82
2022/08/10 03:12:16;;;;;;;11.07;5.50;;;16.40;99.90;;;;;;5034452;28;20077;-82
2022/08/10 03:14:43;;;;;;;8.90;6.05;;;16.40;99.90;;;;;;5034434;28;20045;-83
2022/08/10 03:17:11;;;;;;;10.27;5.03;;;16.40;99.90;;;;;;5034407;28;20530;-83
2022/08/10 03:19:39;;;;;;;9.63;5.78;;;16.40;99.90;;;;;;5033073;28;20169;-83
2022/08/10 03:22:05;;;;;;;8.43;5.05;;;16.30;99.90;;;;;;5032869;28;20053;-83
2022/08/10 03:24:33;;;;;;;8.52;5.18;;;16.30;99.90;;;;;;5034299;28;20124;-83
2022/08/10 03:27:00;;;;;;;9.77;6.00;;;16.20;99.90;;;;;;5033955;28;20057;-83
2022/08/10 03:29:26;;;;;;;8.32;5.13;;;16.30;99.90;;;;;;5032921;28;20056;-83
2022/08/10 03:31:54;;;;;;;11.23;6.10;;;16.20;99.90;;;;;;5033878;28;20088;-83
2022/08/10 03:34:21;;;;;;;8.48;5.20;;;16.30;99.90;;;;;;5034105;28;20051;-83
2022/08/10 03:36:47;;;;;;;10.10;5.65;;;16.30;99.90;;;;;;5034131;28;20049;-83
2022/08/10 03:39:13;;;;;;;7.78;5.47;;;16.30;99.90;;;;;;5034050;28;20099;-83
2022/08/10 03:41:49;;;;;;;9.55;5.57;;;16.30;99.90;;;;;;5032640;28;20125;-83
2022/08/10 03:44:19;;;;;;;12.45;5.65;;;16.30;99.90;;;;;;5032969;28;20135;-83
2022/08/10 03:46:46;;;;;;;10.68;5.10;;;16.40;99.90;;;;;;5033698;28;20141;-83
2022/08/10 03:49:13;;;;;;;11.80;5.38;;;16.40;99.90;;;;;;5033874;28;20052;-83
2022/08/10 03:51:40;;;;;;;8.13;4.70;;;16.40;99.90;;;;;;5032469;28;20041;-83
2022/08/10 03:54:06;;;;;;;10.07;5.55;;;16.40;99.90;;;;;;5032239;28;20053;-83
2022/08/10 03:56:37;;;;;;;9.20;5.05;;;16.40;99.90;;;;;;5032505;28;20094;-83
2022/08/10 03:59:05;;;;;;;10.80;5.65;;;16.50;99.90;;;;;;5032123;28;20068;-83
2022/08/10 04:01:31;;;;;;;10.30;5.90;;;16.50;99.90;;;;;;5032788;28;20042;-83
2022/08/10 04:03:56;;;;;;;11.73;6.22;;;16.50;99.90;;;;;;5030955;28;20060;-83
2022/08/10 04:06:22;;;;;;;10.07;5.20;;;16.50;99.90;;;;;;5033503;28;20523;-83
2022/08/10 04:08:48;;;;;;;8.50;5.50;;;16.50;99.90;;;;;;5033059;28;20051;-83
2022/08/10 04:11:13;;;;;;;8.80;5.53;;;16.60;99.90;;;;;;5032886;28;20038;-83
2022/08/10 04:13:39;;;;;;;10.90;5.68;;;16.60;99.90;;;;;;5033087;28;20053;-83
2022/08/10 04:16:05;;;;;;;10.43;5.72;;;16.60;99.90;;;;;;5033474;28;20056;-83
2022/08/10 04:18:32;;;;;;;9.80;4.90;;;16.60;99.90;;;;;;5033365;28;20045;-86
2022/08/10 04:21:07;;;;;;;8.63;5.28;;;16.60;99.90;;;;;;5033175;28;20045;-83
2022/08/10 04:23:36;;;;;;;9.75;5.55;;;16.60;99.90;;;;;;5032446;28;20489;-83
2022/08/10 04:26:03;;;;;;;8.55;4.97;;;16.60;99.90;;;;;;5033059;28;20053;-84
2022/08/10 04:28:30;;;;;;;6.88;4.53;;;16.60;99.90;;;;;;5031917;28;20081;-83
2022/08/10 04:30:57;;;;;;;7.05;4.22;;;16.70;99.90;;;;;;5031889;28;20054;-84
2022/08/10 04:33:25;;;;;;;8.90;4.82;;;16.70;99.90;;;;;;5031833;28;20120;-83
2022/08/10 04:35:51;;;;;;;8.32;4.53;;;16.70;99.90;;;;;;5032123;28;20500;-84
2022/08/10 04:38:18;;;;;;;9.48;4.55;;;16.70;99.90;;;;;;5033168;28;20116;-83
2022/08/10 04:40:45;;;;;;;11.68;5.50;;;16.70;99.90;;;;;;5033164;28;20122;-83
2022/08/10 04:43:10;;;;;;;8.05;4.90;;;16.80;99.90;;;;;;5033364;28;20041;-82
2022/08/10 04:45:36;;;;;;;7.68;4.38;;;16.80;99.90;;;;;;5033275;28;20059;-83
2022/08/10 04:48:02;;;;;;;9.80;5.03;;;16.80;99.90;;;;;;5031814;28;20420;-82
2022/08/10 04:50:28;;;;;;;9.43;5.18;;;16.80;99.90;;;;;;5032015;28;20080;-83
2022/08/10 04:52:53;;;;;;;7.45;4.75;;;16.80;99.90;;;;;;5031668;28;20489;-82
2022/08/10 04:55:19;;;;;;;9.63;4.40;;;16.80;99.90;;;;;;5032858;28;20091;-82
2022/08/10 04:57:45;;;;;;;7.53;4.13;;;16.90;99.90;;;;;;5031986;28;20045;-83
2022/08/10 05:00:11;;;;;;;6.50;4.13;;;16.90;99.90;;;;;;5032849;28;20444;-83
2022/08/10 05:02:36;;;;;;;5.78;3.53;;;16.90;99.90;;;;;;5033216;28;20060;-82
2022/08/10 05:05:03;;;;;;;8.85;4.00;;;16.90;99.90;;;;;;5031706;28;20132;-82
2022/08/10 05:07:29;;;;;;;6.28;3.83;;;16.90;99.90;;;;;;5032886;28;20489;-82
2022/08/10 05:09:55;;;;;;;7.40;3.55;;;16.90;99.90;;;;;;5032840;28;20046;-82
2022/08/10 05:12:21;;;;;;;6.53;4.10;;;17.00;99.90;;;;;;5031771;28;20528;-82
2022/08/10 05:14:47;;;;;;;8.45;3.80;;;17.00;99.90;;;;;;5033084;28;20136;-82
2022/08/10 05:17:12;;;;;;;7.97;3.95;;;17.10;99.90;;;;;;5033029;28;20129;-82
2022/08/10 05:19:38;;;;;;;6.72;3.80;;;17.20;99.90;;;;;;5033066;28;20053;-82
2022/08/10 05:22:04;;;;;;;8.45;3.90;;;17.20;99.90;;;;;;5033846;28;20041;-82
2022/08/10 05:24:30;;;;;;;6.80;4.88;;;17.20;99.90;;;;;;5035015;28;20095;-83
2022/08/10 05:26:56;;;;;;;8.40;3.83;;;17.30;99.90;;;;;;5036051;28;20061;-83
2022/08/10 05:29:21;;;;;;;7.07;3.78;;;17.40;99.90;;;;;;5036395;28;20091;-82
2022/08/10 05:31:48;;;;;;;9.57;4.20;;;17.40;99.90;;;;;;5036154;28;20128;-83
2022/08/10 05:34:13;;;;;;;7.47;4.00;;;17.50;99.90;;;;;;5034839;28;20092;-83
2022/08/10 05:36:41;;;;;;;7.60;3.88;;;17.50;99.90;;;;;;5034775;28;20069;-82
2022/08/10 05:39:07;;;;;;;8.98;3.72;;;17.50;99.90;;;;;;5036244;28;20049;-82
2022/08/10 05:41:34;;;;;;;8.85;3.72;;;17.50;99.90;;;;;;5034670;28;20056;-83
2022/08/10 05:43:59;;;;;;;5.38;3.38;;;17.60;99.90;;;;;;5036093;28;20489;-82
2022/08/10 05:46:25;;;;;;;7.13;3.50;;;17.70;99.90;;;;;;5036170;28;20074;-82
2022/08/10 05:48:51;;;;;;;5.70;3.35;;;17.80;99.90;;;;;;5036043;28;20484;-83
2022/08/10 05:51:17;;;;;;;6.07;3.10;;;17.80;99.90;;;;;;5036034;28;20037;-82
2022/08/10 05:53:43;;;;;;;9.10;3.80;;;18.00;99.90;;;;;;5034572;28;20405;-83
2022/08/10 05:56:10;;;;;;;7.05;2.85;;;18.10;99.90;;;;;;5034546;28;20404;-82
2022/08/10 05:58:36;;;;;;;7.32;3.05;;;18.20;99.90;;;;;;5035943;28;20045;-82
2022/08/10 06:01:08;;;;;;;6.05;2.85;;;18.40;99.90;;;;;;5035888;28;20065;-83
2022/08/10 06:03:42;;;;;;;5.97;3.00;;;18.50;99.90;;;;;;5034450;28;20176;-82
2022/08/10 06:06:11;;;;;;;5.97;3.20;;;18.60;99.90;;;;;;5034282;28;20116;-83
2022/08/10 06:08:39;;;;;;;6.53;2.95;;;18.70;99.90;;;;;;5034239;28;20045;-83
2022/08/10 06:11:06;;;;;;;5.40;3.10;;;18.90;99.90;;;;;;5034171;28;20041;-82
2022/08/10 06:16:20;;;;;;;6.57;2.90;;;19.10;99.90;;;;;;5035548;28;20052;-81
2022/08/10 06:18:46;;;;;;;6.07;3.00;;;19.20;99.90;;;;;;5035435;28;20172;-82
2022/08/10 06:21:13;;;;;;;5.75;3.10;;;19.30;99.90;;;;;;5035213;28;20449;-83
2022/08/10 06:23:39;;;;;;;6.00;3.17;;;19.40;99.90;;;;;;5033977;28;20060;-81
2022/08/10 06:26:07;;;;;;;7.10;2.60;;;19.40;99.90;;;;;;5033846;28;20080;-83
2022/08/10 06:28:41;;;;;;;9.57;2.95;;;19.50;99.90;;;;;;5035064;28;20497;-82
2022/08/10 06:31:08;;;;;;;5.07;3.05;;;19.70;99.90;;;;;;5035097;28;20060;-82
2022/08/10 06:33:36;;;;;;;4.10;2.70;;;19.90;99.90;;;;;;5043082;28;20060;-82
2022/08/10 06:36:04;;;;;;;4.82;2.60;;;20.10;99.90;;;;;;5033620;28;20072;-82
2022/08/10 06:38:32;;;;;;;8.05;3.10;;;20.10;99.90;;;;;;5034710;28;20510;-82
2022/08/10 06:41:03;;;;;;;7.57;3.05;;;20.30;99.90;;;;;;5033445;28;20053;-82
2022/08/10 06:43:31;;;;;;;5.22;2.72;;;20.40;99.90;;;;;;5034892;28;20049;-82
2022/08/10 06:46:09;;;;;;;5.32;2.50;;;20.50;99.90;;;;;;5034627;28;20095;-82
2022/08/10 06:48:44;;;;;;;5.00;3.17;;;20.70;99.90;;;;;;5033551;28;20392;-82
2022/08/10 06:51:19;;;;;;;6.43;2.70;;;20.90;99.90;;;;;;5034491;28;20052;-85
2022/08/10 06:53:49;;;;;;;5.10;2.58;;;20.90;99.90;;;;;;5033126;28;20060;-85
2022/08/10 06:56:19;;;;;;;5.85;2.65;;;20.90;99.90;;;;;;5034358;28;20038;-82
2022/08/10 06:58:53;;;;;;;5.38;2.60;;;20.90;99.90;;;;;;5033286;28;20045;-83
2022/08/10 07:01:23;;;;;;;12.50;4.15;;;20.80;99.90;;;;;;5033286;28;20430;-82
2022/08/10 07:03:58;;;;;;;4.97;2.80;;;20.90;99.90;;;;;;5034487;28;20080;-82
2022/08/10 07:06:24;;;;;;;4.25;2.30;;;20.90;99.90;;;;;;5034220;28;20496;-83
2022/08/10 07:08:51;;;;;;;6.60;2.42;;;20.80;99.90;;;;;;5033387;28;20084;-82
2022/08/10 07:11:19;;;;;;;4.53;2.58;;;21.00;99.90;;;;;;5034184;28;20049;-83
2022/08/10 07:13:46;;;;;;;6.10;2.70;;;21.30;99.90;;;;;;5033803;28;20487;-82
2022/08/10 07:16:13;;;;;;;4.32;2.30;;;21.10;99.90;;;;;;5032718;28;20048;-83
2022/08/10 07:18:41;;;;;;;5.05;2.72;;;21.20;99.90;;;;;;5032765;28;20052;-82
2022/08/10 07:21:09;;;;;;;4.55;2.70;;;21.20;99.90;;;;;;5033779;28;20416;-83
2022/08/10 07:23:35;;;;;;;6.53;3.00;;;21.30;99.90;;;;;;5033208;28;20045;-83
2022/08/10 07:26:01;;;;;;;8.93;3.17;;;21.10;99.90;;;;;;5033592;28;20077;-83
2022/08/10 07:28:30;;;;;;;5.13;2.72;;;20.90;99.90;;;;;;5034035;28;20049;-84
2022/08/10 07:30:58;;;;;;;4.00;2.40;;;21.10;99.90;;;;;;5032503;28;20531;-85
2022/08/10 07:33:26;;;;;;;4.72;2.72;;;21.30;99.90;;;;;;5033692;28;20103;-83
2022/08/10 07:35:52;;;;;;;6.15;2.75;;;21.40;99.90;;;;;;5032308;28;20085;-81
2022/08/10 07:38:25;;;;;;;5.03;2.88;;;21.60;99.90;;;;;;5033401;28;20087;-82
2022/08/10 07:40:52;;;;;;;4.03;2.67;;;21.50;99.90;;;;;;5046848;28;20059;-81
2022/08/10 07:43:23;;;;;;;6.65;2.53;;;21.50;99.90;;;;;;5052102;28;20171;-83
2022/08/10 07:45:49;;;;;;;4.45;2.85;;;21.70;99.90;;;;;;5053344;28;20110;-81
2022/08/10 07:48:27;;;;;;;3.92;2.25;;;21.40;99.90;;;;;;5053479;28;20114;-83
2022/08/10 07:50:58;;;;;;;8.07;3.13;;;21.60;99.90;;;;;;5052117;28;20053;-82
2022/08/10 07:53:26;;;;;;;4.65;2.40;;;21.50;99.90;;;;;;5052014;28;20060;-82
2022/08/10 07:55:54;;;;;;;4.40;2.10;;;21.60;99.90;;;;;;5053505;28;20041;-82
2022/08/10 07:58:26;;;;;;;4.38;2.40;;;21.70;99.90;;;;;;5047474;28;20480;-83
2022/08/10 08:00:53;;;;;;;8.65;2.55;;;22.00;99.90;;;;;;5051890;28;20045;-82
2022/08/10 08:03:29;;;;;;;7.05;2.70;;;21.70;99.90;;;;;;5053406;28;20084;-80
2022/08/10 08:05:56;;;;;;;5.28;2.40;;;21.50;99.90;;;;;;5052219;28;20049;-82
2022/08/10 08:08:22;;;;;;;5.35;2.22;;;21.60;99.90;;;;;;5053122;28;20528;-82
2022/08/10 08:10:49;;;;;;;7.00;2.40;;;21.90;99.90;;;;;;5051086;28;20503;-83
2022/08/10 08:13:16;;;;;;;6.80;2.95;;;22.20;99.90;;;;;;5052920;28;20098;-81
2022/08/10 08:15:43;;;;;;;4.05;2.30;;;22.10;99.90;;;;;;5052186;28;20045;-82
2022/08/10 08:18:10;;;;;;;4.82;2.20;;;22.30;99.90;;;;;;5034733;28;20052;-81
2022/08/10 08:20:36;;;;;;;4.70;2.08;;;22.40;99.90;;;;;;5044546;28;20049;-83
2022/08/10 08:23:03;;;;;;;4.70;2.30;;;22.60;99.90;;;;;;5049876;28;20116;-82
2022/08/10 08:25:30;;;;;;;5.00;2.33;;;22.50;99.90;;;;;;5040966;28;20049;-82
2022/08/10 08:27:56;;;;;;;5.65;2.33;;;22.70;99.90;;;;;;5032995;28;20568;-83
2022/08/10 08:30:23;;;;;;;3.92;2.03;;;22.60;99.90;;;;;;5033236;28;20038;-81
2022/08/10 08:32:50;;;;;;;4.38;2.05;;;22.20;99.90;;;;;;5033129;28;20050;-81
2022/08/10 08:35:34;;;;;;;6.05;2.25;;;22.20;99.90;;;;;;5033084;28;20048;-81
2022/08/10 08:38:02;;;;;;;6.78;2.90;;;22.50;99.90;;;;;;5035911;28;20041;-82
2022/08/10 08:40:32;;;;;;;5.53;2.00;;;22.50;99.90;;;;;;5041844;28;20115;-81
2022/08/10 08:43:26;;;;;;;4.57;2.10;;;22.30;99.90;;;;;;5039029;28;20052;-82
2022/08/10 08:45:58;;;;;;;3.25;1.90;;;22.60;99.90;;;;;;5033211;28;20099;-83
2022/08/10 08:48:48;;;;;;;4.05;2.10;;;22.80;99.90;;;;;;5033106;28;20048;-81
2022/08/10 08:51:47;;;;;;;5.50;2.15;;;22.70;99.90;;;;;;5047539;28;20095;-81
2022/08/10 08:54:54;;;;;;;3.72;1.90;;;22.70;99.90;;;;;;5032844;28;20049;-81
2022/08/10 08:57:46;;;;;;;5.03;2.17;;;23.00;99.90;;;;;;5033926;28;20053;-83
2022/08/10 09:00:28;;;;;;;6.35;1.90;;;22.80;99.90;;;;;;5036591;28;20484;-81
2022/08/10 09:03:20;;;;;;;4.60;2.03;;;22.90;99.90;;;;;;5036785;28;20054;-82
2022/08/10 09:05:57;;;;;;;4.68;2.10;;;22.90;99.90;;;;;;5036580;28;20053;-81
2022/08/10 09:08:59;;;;;;;7.75;2.00;;;22.90;99.90;;;;;;5036615;28;20107;-88
2022/08/10 09:11:39;;;;;;;4.20;1.90;;;22.90;99.90;;;;;;5035005;28;20149;-81
2022/08/10 09:14:17;;;;;;;2.63;1.65;;;23.10;99.90;;;;;;5033881;28;20053;-83
2022/08/10 09:17:12;;;;;;;2.67;1.52;;;23.20;99.90;;;;;;5035689;28;20052;-82
2022/08/10 09:19:47;;;;;;;4.97;2.38;;;23.10;99.90;;;;;;5036340;28;20052;-82
2022/08/10 09:22:20;;;;;;;3.53;1.77;;;23.30;99.90;;;;;;5036231;28;20041;-84
2022/08/10 09:24:55;;;;;;;4.95;1.85;;;23.60;99.90;;;;;;5036153;28;20100;-84
2022/08/10 09:27:31;;;;;;;5.07;2.10;;;23.30;99.90;;;;;;5036236;28;20041;-83
2022/08/10 09:30:03;;;;;;;3.55;2.10;;;23.00;99.90;;;;;;5034503;28;20542;-83
2022/08/10 09:32:40;;;;;;;4.50;1.67;;;23.20;99.90;;;;;;5034959;28;20076;-82
2022/08/10 09:35:06;;;;;;;3.92;1.80;;;23.10;99.90;;;;;;5036242;28;20054;-83
2022/08/10 09:37:41;;;;;;;5.50;2.10;;;23.30;99.90;;;;;;5036212;28;20042;-87
2022/08/10 09:40:16;;;;;;;3.72;1.98;;;23.70;99.90;;;;;;5034807;28;20064;-87
2022/08/10 09:42:59;;;;;;;4.38;2.00;;;23.70;99.90;;;;;;5035798;28;20034;-86
2022/08/10 09:45:48;;;;;;;3.75;1.80;;;23.40;99.90;;;;;;5034505;28;20045;-85
2022/08/10 09:48:20;;;;;;;3.55;1.92;;;23.60;99.90;;;;;;5034735;28;20041;-85
2022/08/10 09:51:16;;;;;;;4.13;1.90;;;23.40;99.90;;;;;;5035705;28;20057;-85
2022/08/10 09:54:19;;;;;;;4.43;1.80;;;23.70;99.90;;;;;;5035526;28;20799;-85
2022/08/10 09:56:44;;;;;;;;;;;23.90;99.90;;;;;;5036022;28;20049;-84
2022/08/10 09:59:21;;;;;;;4.25;1.80;;;23.60;99.90;;;;;;5034170;28;19947;-85
2022/08/10 10:01:56;;;;;;;5.38;2.05;;;23.70;99.90;;;;;;5035654;28;20041;-84
2022/08/10 10:04:51;;;;;;;4.47;1.90;;;23.80;99.90;;;;;;5035403;28;20068;-86
2022/08/10 10:07:27;;;;;;;3.63;1.85;;;23.40;99.90;;;;;;5034130;28;20056;-87
2022/08/10 10:10:04;;;;;;;6.53;2.35;;;23.50;99.90;;;;;;5033964;28;20581;-91
2022/08/10 10:13:01;;;;;;;4.25;1.98;;;23.30;99.90;;;;;;5034445;28;20040;-86
2022/08/10 10:15:37;;;;;;;3.65;2.20;;;23.80;99.90;;;;;;5035227;28;20168;-92
2022/08/10 10:18:28;;;;;;;3.28;1.60;;;24.00;99.90;;;;;;5034443;28;20128;-85
2022/08/10 10:21:11;;;;;;;3.95;1.80;;;24.20;99.90;;;;;;5034142;28;20106;-85
2022/08/10 10:23:39;;;;;;;4.45;1.85;;;24.40;99.90;;;;;;5034091;28;20079;-87
2022/08/10 10:26:05;;;;;;;3.83;2.05;;;24.50;99.90;;;;;;5034747;28;20450;-83
2022/08/10 10:29:00;;;;;;;4.18;2.17;;;24.20;99.90;;;;;;5033635;28;20493;-86
2022/08/10 10:31:51;;;;;;;5.65;1.83;;;24.20;99.90;;;;;;5034872;28;20477;-87
2022/08/10 10:34:34;;;;;;;5.07;1.80;;;24.10;99.90;;;;;;5033667;28;20535;-88
2022/08/10 10:37:01;;;;;;;5.95;2.20;;;24.10;99.90;;;;;;5034869;28;20049;-88
2022/08/10 10:39:29;;;;;;;4.43;2.30;;;24.60;99.90;;;;;;5033414;28;20513;-87
2022/08/10 10:42:09;;;;;;;4.20;1.83;;;24.50;99.90;;;;;;5033689;28;20059;-88
2022/08/10 10:44:48;;;;;;;3.67;1.98;;;24.60;99.90;;;;;;5033477;28;20053;-89
2022/08/10 10:47:48;;;;;;;3.67;1.80;;;25.00;99.90;;;;;;5035171;28;20053;-88
2022/08/10 10:50:51;;;;;;;5.20;2.75;;;25.10;99.90;;;;;;5034826;28;20048;-82
2022/08/10 10:53:28;;;;;;;5.38;1.90;;;24.80;99.90;;;;;;5034654;28;20116;-81
2022/08/10 10:56:15;;;;;;;3.40;1.85;;;25.00;99.90;;;;;;5034262;28;20401;-81
2022/08/10 10:59:14;;;;;;;4.07;2.25;;;25.10;99.90;;;;;;5033694;28;20033;-87
2022/08/10 11:02:01;;;;;;;3.85;1.83;;;25.10;99.90;;;;;;5033703;28;20560;-90
2022/08/10 11:04:46;;;;;;;5.10;2.08;;;25.10;99.90;;;;;;5035957;28;20045;-88
2022/08/10 11:07:27;;;;;;;3.25;1.52;;;25.40;99.90;;;;;;5033229;28;20041;-88
2022/08/10 11:09:58;;;;;;;4.75;1.80;;;25.50;99.90;;;;;;5033084;28;20095;-88
2022/08/10 11:12:45;;;;;;;5.47;1.73;;;25.50;99.90;;;;;;5032813;28;20052;-91
2022/08/10 11:15:36;;;;;;;3.63;1.90;;;25.40;99.90;;;;;;5033218;28;20378;-86
2022/08/10 11:18:17;;;;;;;5.57;2.30;;;25.00;99.90;;;;;;5032679;28;20041;-88
2022/08/10 11:20:50;;;;;;;5.35;2.42;;;25.10;99.90;;;;;;5032666;28;20500;-82
2022/08/10 11:23:25;;;;;;;5.78;2.30;;;25.00;99.90;;;;;;5032630;28;20548;-82
2022/08/10 11:26:26;;;;;;;5.25;2.20;;;25.30;99.90;;;;;;5033574;28;20045;-87
2022/08/10 11:29:30;;;;;;;4.00;2.10;;;25.50;99.90;;;;;;5031685;28;20132;-85
2022/08/10 11:32:29;;;;;;;4.78;2.10;;;25.70;99.90;;;;;;5019906;28;20057;-85
2022/08/10 11:35:06;;;;;;;7.53;3.35;;;25.40;99.90;;;;;;5021169;28;20060;-85
2022/08/10 11:37:50;;;;;;;4.68;2.40;;;25.50;99.90;;;;;;5031651;28;20056;-87
2022/08/10 11:40:41;;;;;;;6.80;2.58;;;25.80;99.90;;;;;;5032999;28;20069;-86
2022/08/10 11:43:21;;;;;;;4.97;2.35;;;25.70;99.90;;;;;;5033100;28;20041;-86
2022/08/10 11:45:53;;;;;;;4.57;2.33;;;25.20;99.90;;;;;;5032782;28;20045;-87
2022/08/10 11:48:39;;;;;;;5.63;2.35;;;25.20;99.90;;;;;;5031762;28;20052;-85
2022/08/10 11:51:16;;;;;;;3.45;2.20;;;25.40;99.90;;;;;;5032759;28;20049;-86
2022/08/10 11:53:52;;;;;;;7.03;2.40;;;25.10;99.90;;;;;;5032555;28;20111;-82
2022/08/10 11:56:31;;;;;;;3.83;2.08;;;25.20;99.90;;;;;;5032679;28;20084;-84
2022/08/10 12:01:44;;;;;;;3.92;2.17;;;25.00;99.90;;;;;;5032754;28;20052;-83
2022/08/10 12:04:14;;;;;;;6.32;2.30;;;25.00;99.90;;;;;;5032449;28;20069;-83
2022/08/10 12:06:41;;;;;;;4.95;2.33;;;24.70;99.90;;;;;;5031260;28;20048;-86
2022/08/10 12:09:10;;;;;;;3.80;2.20;;;24.90;99.90;;;;;;5032446;28;20041;-85
2022/08/10 12:11:36;;;;;;;6.53;2.10;;;25.00;99.90;;;;;;5032700;28;20091;-82
2022/08/10 12:14:15;;;;;;;4.40;2.05;;;24.90;99.90;;;;;;5032440;28;20205;-80
2022/08/10 12:16:47;;;;;;;4.80;2.20;;;25.00;99.90;;;;;;5031078;28;20546;-83
2022/08/10 12:19:21;;;;;;;6.22;1.90;;;25.30;99.90;;;;;;5032314;28;20111;-79
2022/08/10 12:21:54;;;;;;;6.45;1.88;;;25.40;99.90;;;;;;5032377;28;20073;-81
2022/08/10 12:24:40;;;;;;;4.93;2.03;;;25.00;99.90;;;;;;5030992;28;20049;-83
2022/08/10 12:27:51;;;;;;;10.65;2.95;;;25.60;99.90;;;;;;4993822;28;1129836;-85
2022/08/10 12:30:22;;;;;;;5.18;2.35;;;25.50;99.90;;;;;;5026285;28;20049;-83
2022/08/10 12:33:09;;;;;;;6.05;2.00;;;25.50;99.90;;;;;;5052802;28;20041;-84
2022/08/10 12:35:56;;;;;;;3.28;1.80;;;25.80;99.90;;;;;;5046673;28;20053;-83
2022/08/10 12:38:32;;;;;;;4.32;1.95;;;25.40;99.90;;;;;;5055978;28;20484;-83
2022/08/10 12:41:15;;;;;;;4.28;1.58;;;25.60;99.90;;;;;;5056920;28;20084;-83
2022/08/10 12:43:48;;;;;;;6.13;2.00;;;25.50;99.90;;;;;;5057187;28;20056;-83
2022/08/10 12:46:39;;;;;;;4.22;1.83;;;25.50;99.90;;;;;;5049238;28;20048;-83
2022/08/10 12:49:22;;;;;;;4.00;1.90;;;25.50;99.90;;;;;;5047558;28;20041;-83
2022/08/10 12:51:58;;;;;;;5.15;1.98;;;25.60;99.90;;;;;;5042077;28;20064;-82
2022/08/10 12:54:26;;;;;;;4.95;2.20;;;25.70;99.90;;;;;;5036541;28;20056;-83
2022/08/10 12:56:59;;;;;;;3.65;1.90;;;24.90;99.90;;;;;;5036877;28;20053;-83
2022/08/10 12:59:27;;;;;;;4.55;2.40;;;25.30;99.90;;;;;;5036972;28;20041;-83
2022/08/10 13:01:56;;;;;;;6.63;2.60;;;25.10;99.90;;;;;;5047387;28;20039;-84
2022/08/10 13:04:31;;;;;;;6.07;2.55;;;25.30;99.90;;;;;;5056647;28;20044;-82
2022/08/10 13:07:01;;;;;;;5.50;2.10;;;25.60;99.90;;;;;;5056280;28;20492;-83
2022/08/10 13:09:27;;;;;;;5.05;2.00;;;25.80;99.90;;;;;;5056722;28;20037;-83
2022/08/10 13:12:03;;;;;;;5.88;2.50;;;25.90;99.90;;;;;;5055971;28;20056;-85
2022/08/10 13:14:37;;;;;;;7.10;2.30;;;25.50;99.90;;;;;;5055031;28;20412;-83
2022/08/10 13:17:05;;;;;;;4.13;2.08;;;25.40;99.90;;;;;;5054939;28;20147;-84
2022/08/10 13:19:36;;;;;;;4.80;1.73;;;25.30;99.90;;;;;;5056159;28;20045;-81